Main page

Bordeaux, France

Bordeaux–Mérignac Airport

latitude: 44-50N, longitude: 000-42W, elevation: 49 m

Current weather observation

The report was made 15 minutes ago, at 21:00 UTC
Wind 7 kt from the North
Temperature 10°C
Humidity 71%
Pressure 1020 hPa
Visibility 10 km or more
Scattered clouds at a height of 4700 ft

METAR: LFBD 132100Z AUTO 36007KT 9999 SCT047 10/05 Q1020

Time: 23:15 (21:15 UTC)


The report was made 4 hours and 15 minutes ago, at 17:00 UTC
Forecast valid from 13 at 18 UTC to 14 at 24 UTC
Wind 12 kt from the North/Northeast
Visibility 10 km or more
no clouds below 1500 m and no cumulonimbus
from 13 at 21 UTC to 13 at 24 UTC
Wind 7 kt from the North/Northwest
from 14 at 12 UTC to 14 at 18 UTC
Wind 10 kt from the North with gusts up to 20 kt
from 14 at 19 UTC to 14 at 21 UTC
Wind 3 kt from the West/Southwest
from 14 at 22 UTC to 14 at 24 UTC
Broken clouds at a height of 4000 ft

TAF: LFBD 131700Z 1318/1424 02012KT CAVOK BECMG 1321/1324 34007KT TEMPO 1412/1418 01010G20KT BECMG 1419/1421 24003KT BECMG 1422/1424 BKN040


Weather observations and forecasts of more than 4000 airports (METAR and TAF reports).

The available stations are represented by yellow and red dots on the map.

Hover mouse over dot to see the name of the station.

Then click to see weather observations and forecasts.

To change the map : click on the green buttons with a black cross to zoom in, on the green button with a dash to zoom out, or on the green arrows for adjacent maps.